Time;durP1;ratioP1;P1;durP2;ratioP2;P2;SDS_P1;SDS_P2;PMS_P1;PMS_P2;Temp;Humidity;BMP_temperature;BMP_pressure;BME280_temperature;BME280_humidity;BME280_pressure;Samples;Min_cycle;Max_cycle;Signal;HPM_P1;HPM_P2
2021/06/30 00:01:54;;;;;;;4.10;3.70;;;33.80;99.90;;;;;;4974843;28;20203;-87
2021/06/30 00:04:25;;;;;;;4.50;4.10;;;34.00;99.90;;;;;;4975112;28;20214;-88
2021/06/30 00:06:56;;;;;;;4.53;4.10;;;33.90;99.90;;;;;;4974626;28;20792;-87
2021/06/30 00:09:27;;;;;;;5.55;3.35;;;34.00;99.90;;;;;;4969680;28;20212;-87
2021/06/30 00:11:57;;;;;;;8.63;3.83;;;33.70;99.90;;;;;;4963728;28;20207;-86
2021/06/30 00:14:35;;;;;;;5.90;3.50;;;33.50;99.90;;;;;;4955441;29;20293;-87
2021/06/30 00:17:07;;;;;;;4.47;3.65;;;33.50;99.90;;;;;;4956206;29;20211;-87
2021/06/30 00:19:43;;;;;;;8.60;3.50;;;33.60;99.90;;;;;;4956102;29;20281;-87
2021/06/30 00:22:14;;;;;;;3.65;3.03;;;33.80;99.90;;;;;;4955471;29;20640;-87
2021/06/30 00:24:50;;;;;;;6.60;3.25;;;33.90;99.90;;;;;;4955596;29;20634;-88
2021/06/30 00:27:20;;;;;;;4.82;2.92;;;34.00;99.90;;;;;;4955445;29;20299;-85
2021/06/30 00:29:58;;;;;;;5.07;2.85;;;34.20;99.90;;;;;;4956355;28;20207;-86
2021/06/30 00:32:34;;;;;;;8.45;3.17;;;34.30;99.90;;;;;;4955168;29;20341;-86
2021/06/30 00:35:05;;;;;;;5.32;3.20;;;33.80;99.90;;;;;;4956345;28;20207;-86
2021/06/30 00:37:36;;;;;;;4.05;3.50;;;34.10;99.90;;;;;;4974121;28;20544;-86
2021/06/30 00:40:08;;;;;;;4.85;3.20;;;33.70;99.90;;;;;;4973526;28;20249;-87
2021/06/30 00:42:44;;;;;;;6.07;2.85;;;33.40;99.90;;;;;;4974028;28;20214;-87
2021/06/30 00:45:19;;;;;;;3.40;3.05;;;33.70;99.90;;;;;;4973855;28;20211;-87
2021/06/30 00:47:50;;;;;;;5.38;3.35;;;33.70;99.90;;;;;;4974220;28;20250;-86
2021/06/30 00:50:21;;;;;;;4.93;3.05;;;32.50;99.90;;;;;;4972896;28;20207;-86
2021/06/30 00:52:52;;;;;;;8.18;3.47;;;32.30;99.90;;;;;;4973645;28;20226;-87
2021/06/30 00:55:27;;;;;;;5.35;3.10;;;32.20;99.90;;;;;;4974460;28;20592;-86
2021/06/30 00:58:03;;;;;;;7.07;3.20;;;32.00;99.90;;;;;;4975240;28;20226;-86
2021/06/30 01:00:36;;;;;;;3.15;2.83;;;33.00;99.90;;;;;;4973533;28;20230;-86
2021/06/30 01:03:07;;;;;;;3.78;2.90;;;33.10;99.90;;;;;;4974792;28;20238;-85
2021/06/30 01:05:42;;;;;;;5.70;3.58;;;34.00;99.90;;;;;;4974325;28;20246;-86
2021/06/30 01:08:12;;;;;;;4.43;3.20;;;34.70;99.50;;;;;;4975012;28;20207;-86
2021/06/30 01:10:43;;;;;;;4.63;3.53;;;34.30;99.80;;;;;;4986454;28;20230;-87
2021/06/30 01:13:13;;;;;;;5.82;3.15;;;33.90;99.40;;;;;;4997287;28;20320;-87
2021/06/30 01:15:55;;;;;;;5.18;3.40;;;33.80;99.40;;;;;;4989022;28;20552;-88
2021/06/30 01:18:32;;;;;;;4.40;3.13;;;34.40;99.70;;;;;;4963518;28;20286;-86
2021/06/30 01:21:04;;;;;;;5.45;3.85;;;35.20;99.00;;;;;;4973326;28;20207;-86
2021/06/30 01:23:43;;;;;;;3.25;2.90;;;35.80;97.80;;;;;;4974701;28;20298;-86
2021/06/30 01:26:20;;;;;;;5.05;2.80;;;35.60;97.80;;;;;;4974305;28;20296;-85
2021/06/30 01:28:50;;;;;;;5.15;3.10;;;35.20;97.80;;;;;;4974473;28;20214;-86
2021/06/30 01:31:21;;;;;;;3.90;3.45;;;34.80;97.30;;;;;;4973129;28;20277;-86
2021/06/30 01:33:56;;;;;;;3.95;3.20;;;33.40;97.90;;;;;;4973486;28;20214;-86
2021/06/30 01:36:27;;;;;;;2.95;2.50;;;33.30;97.80;;;;;;4973389;28;20293;-86
2021/06/30 01:39:05;;;;;;;4.43;2.78;;;34.30;98.10;;;;;;4973586;28;20234;-87
2021/06/30 01:41:41;;;;;;;4.03;2.70;;;34.00;97.40;;;;;;4972832;28;20215;-86
2021/06/30 01:44:17;;;;;;;4.50;3.00;;;34.30;97.10;;;;;;4973702;28;20230;-88
2021/06/30 01:46:48;;;;;;;6.35;2.78;;;35.10;96.20;;;;;;4957502;28;20652;-86
2021/06/30 01:49:19;;;;;;;2.65;2.45;;;35.10;95.80;;;;;;4972648;28;20242;-87
2021/06/30 01:51:55;;;;;;;6.20;3.17;;;35.40;96.00;;;;;;4971934;28;20234;-86
2021/06/30 01:54:27;;;;;;;4.93;2.70;;;35.20;96.20;;;;;;4973682;28;20230;-86
2021/06/30 01:56:58;;;;;;;4.07;2.80;;;35.10;96.20;;;;;;4973072;28;20218;-87
2021/06/30 01:59:28;;;;;;;3.88;2.53;;;34.30;95.80;;;;;;4973599;28;20294;-86
2021/06/30 02:01:59;;;;;;;4.75;3.00;;;33.20;96.50;;;;;;4971956;28;20657;-86
2021/06/30 02:04:29;;;;;;;3.42;2.50;;;33.80;96.50;;;;;;4971830;28;20623;-87
2021/06/30 02:07:00;;;;;;;3.65;2.65;;;34.30;96.70;;;;;;4971811;28;20312;-87
2021/06/30 02:09:32;;;;;;;2.60;2.40;;;34.60;95.80;;;;;;4976673;28;20266;-86
2021/06/30 02:12:04;;;;;;;4.25;2.83;;;34.60;95.20;;;;;;4975632;28;20235;-87
2021/06/30 02:14:34;;;;;;;4.07;2.45;;;33.90;95.80;;;;;;4978230;28;20218;-87
2021/06/30 02:17:05;;;;;;;4.57;2.28;;;34.40;96.50;;;;;;4977579;28;20637;-87
2021/06/30 02:19:41;;;;;;;2.50;2.30;;;33.70;96.00;;;;;;4976176;28;20565;-87
2021/06/30 02:22:11;;;;;;;5.88;2.40;;;33.30;96.70;;;;;;4975926;28;20235;-86
2021/06/30 02:24:43;;;;;;;3.97;2.70;;;33.80;96.60;;;;;;4977158;28;20203;-87
2021/06/30 02:27:14;;;;;;;3.47;2.63;;;34.40;96.40;;;;;;4976344;28;20234;-87
2021/06/30 02:29:50;;;;;;;3.00;2.45;;;34.90;95.40;;;;;;4976275;28;20207;-90
2021/06/30 02:32:25;;;;;;;3.08;2.75;;;34.90;95.50;;;;;;4960452;28;20196;-86
2021/06/30 02:34:57;;;;;;;5.03;2.70;;;35.00;95.50;;;;;;4956843;28;20572;-86
2021/06/30 02:37:27;;;;;;;2.70;2.40;;;34.90;95.40;;;;;;4977109;28;20622;-87
2021/06/30 02:39:59;;;;;;;3.40;2.72;;;34.40;95.60;;;;;;4975461;28;20249;-86
2021/06/30 02:42:35;;;;;;;5.70;2.90;;;33.50;96.50;;;;;;4956962;29;20274;-87
2021/06/30 02:45:13;;;;;;;4.60;3.10;;;32.70;97.10;;;;;;4957084;28;20203;-87
2021/06/30 02:47:50;;;;;;;5.15;3.25;;;31.30;98.40;;;;;;4958259;28;20267;-87
2021/06/30 02:50:21;;;;;;;3.55;2.70;;;30.90;99.10;;;;;;4956177;28;20211;-86
2021/06/30 02:52:52;;;;;;;3.60;2.55;;;30.60;99.90;;;;;;4968298;28;20204;-86
2021/06/30 02:55:25;;;;;;;3.10;2.90;;;30.30;99.90;;;;;;4976246;28;20678;-85
2021/06/30 02:57:55;;;;;;;3.57;2.80;;;30.10;99.90;;;;;;4975991;28;20270;-86
2021/06/30 03:00:31;;;;;;;3.22;2.92;;;29.90;99.90;;;;;;4974729;28;20257;-85
2021/06/30 03:03:08;;;;;;;4.90;2.73;;;29.70;99.90;;;;;;4973940;28;20233;-87
2021/06/30 03:05:39;;;;;;;5.60;2.73;;;29.50;99.90;;;;;;4959363;28;20242;-86
2021/06/30 03:08:14;;;;;;;2.53;2.33;;;29.00;99.90;;;;;;4976405;28;20285;-87
2021/06/30 03:10:53;;;;;;;2.87;2.33;;;28.70;99.90;;;;;;4975573;28;20210;-86
2021/06/30 03:13:29;;;;;;;2.40;2.20;;;28.60;99.90;;;;;;4972171;28;20298;-85
2021/06/30 03:16:00;;;;;;;5.67;2.57;;;28.50;99.90;;;;;;4960284;28;20253;-87
2021/06/30 03:18:31;;;;;;;3.83;2.47;;;28.40;99.90;;;;;;4961715;28;20217;-87
2021/06/30 03:21:02;;;;;;;3.77;2.70;;;28.40;99.90;;;;;;4978877;28;20269;-86
2021/06/30 03:23:37;;;;;;;3.67;2.30;;;28.30;99.90;;;;;;4981934;28;20233;-86
2021/06/30 03:26:09;;;;;;;3.90;2.63;;;28.20;99.90;;;;;;4983954;28;20574;-88
2021/06/30 03:28:45;;;;;;;5.13;2.70;;;28.00;99.90;;;;;;4998404;28;20238;-87
2021/06/30 03:31:15;;;;;;;3.13;2.27;;;27.80;99.90;;;;;;4988615;28;20227;-87
2021/06/30 03:33:46;;;;;;;2.57;1.90;;;27.70;99.90;;;;;;4977656;28;20207;-88
2021/06/30 03:36:16;;;;;;;2.60;2.10;;;27.50;99.90;;;;;;4960848;29;20207;-88
2021/06/30 03:38:47;;;;;;;6.13;2.07;;;27.40;99.90;;;;;;4966344;28;20246;-88
2021/06/30 03:41:19;;;;;;;4.07;2.37;;;27.30;99.90;;;;;;4979060;28;20211;-89
2021/06/30 03:43:50;;;;;;;13.63;3.07;;;27.20;99.90;;;;;;4997990;28;20207;-89
2021/06/30 03:46:25;;;;;;;3.27;2.30;;;26.90;99.90;;;;;;4998648;28;20202;-86
2021/06/30 03:48:57;;;;;;;4.50;2.20;;;26.70;99.90;;;;;;4991980;28;20239;-88
2021/06/30 03:51:33;;;;;;;4.57;2.23;;;26.60;99.90;;;;;;4962701;28;20206;-88
2021/06/30 03:54:05;;;;;;;6.23;3.20;;;26.40;99.90;;;;;;4972725;28;20267;-88
2021/06/30 03:56:42;;;;;;;3.23;2.10;;;26.20;99.90;;;;;;4966186;28;20211;-87
2021/06/30 03:59:18;;;;;;;7.40;2.30;;;25.90;99.90;;;;;;4974658;28;20309;-87
2021/06/30 04:01:50;;;;;;;2.47;2.00;;;25.90;99.90;;;;;;4974268;28;20339;-88
2021/06/30 04:04:21;;;;;;;3.77;2.60;;;25.70;99.90;;;;;;4975488;28;20303;-87
2021/06/30 04:06:52;;;;;;;4.93;2.27;;;25.60;99.90;;;;;;4975387;28;20723;-87
2021/06/30 04:09:28;;;;;;;4.43;2.33;;;25.50;99.90;;;;;;4963190;28;20337;-87
2021/06/30 04:12:00;;;;;;;6.20;2.40;;;25.40;99.90;;;;;;4975324;28;20261;-87
2021/06/30 04:14:36;;;;;;;2.70;2.23;;;25.10;99.90;;;;;;4977229;28;20211;-87
2021/06/30 04:17:12;;;;;;;3.13;2.10;;;25.00;99.90;;;;;;4976433;28;20270;-88
2021/06/30 04:19:43;;;;;;;2.83;2.00;;;24.80;99.90;;;;;;4956448;28;20684;-87
2021/06/30 04:22:14;;;;;;;3.33;1.93;;;24.60;99.90;;;;;;4954544;29;20255;-86
2021/06/30 04:24:50;;;;;;;3.77;1.90;;;24.50;99.90;;;;;;4955123;29;20270;-87
2021/06/30 04:27:24;;;;;;;3.67;2.10;;;24.40;99.90;;;;;;4955231;29;20289;-87
2021/06/30 04:29:54;;;;;;;4.83;2.27;;;24.30;99.90;;;;;;4953876;28;20215;-88
2021/06/30 04:32:26;;;;;;;5.60;2.10;;;24.10;99.90;;;;;;4957146;28;20627;-87
2021/06/30 04:35:02;;;;;;;2.20;1.97;;;24.10;99.90;;;;;;4957880;28;20366;-87
2021/06/30 04:37:38;;;;;;;2.53;1.80;;;24.00;99.90;;;;;;4976852;28;20199;-88
2021/06/30 04:40:16;;;;;;;3.57;1.90;;;23.80;99.90;;;;;;4974901;28;20302;-87
2021/06/30 04:42:55;;;;;;;4.73;2.07;;;23.60;99.90;;;;;;4958718;28;20619;-87
2021/06/30 04:45:26;;;;;;;3.63;1.80;;;23.50;99.90;;;;;;4974011;28;20279;-86
2021/06/30 04:48:02;;;;;;;3.93;1.60;;;23.30;99.90;;;;;;4974568;28;20315;-87
2021/06/30 04:50:38;;;;;;;1.97;1.60;;;23.20;99.90;;;;;;4973339;28;20206;-86
2021/06/30 04:53:14;;;;;;;2.87;2.27;;;23.00;99.90;;;;;;4974710;28;20602;-87
2021/06/30 04:55:45;;;;;;;7.43;1.97;;;22.90;99.90;;;;;;4973794;28;20210;-86
2021/06/30 04:58:18;;;;;;;5.27;2.13;;;22.70;99.90;;;;;;4973767;28;20214;-86
2021/06/30 05:00:55;;;;;;;4.37;2.20;;;22.70;99.90;;;;;;4972904;28;20261;-87
2021/06/30 05:03:30;;;;;;;8.40;1.83;;;22.60;99.90;;;;;;4974118;28;20622;-86
2021/06/30 05:06:01;;;;;;;5.53;2.50;;;22.50;99.90;;;;;;4974789;28;20214;-86
2021/06/30 05:08:31;;;;;;;1.83;1.53;;;22.40;99.90;;;;;;4974098;28;20227;-87
2021/06/30 05:11:02;;;;;;;1.93;1.70;;;22.30;99.90;;;;;;4973544;28;20671;-86
2021/06/30 05:13:40;;;;;;;3.33;1.93;;;22.30;99.90;;;;;;4973752;28;20293;-86
2021/06/30 05:16:11;;;;;;;2.93;2.00;;;22.30;99.90;;;;;;4974099;28;20254;-87
2021/06/30 05:18:46;;;;;;;5.23;1.97;;;22.30;99.90;;;;;;4973757;28;20234;-86
2021/06/30 05:21:17;;;;;;;3.17;1.93;;;22.20;99.90;;;;;;4972414;28;20331;-87
2021/06/30 05:23:55;;;;;;;2.07;1.73;;;22.10;99.90;;;;;;4973981;28;20226;-87
2021/06/30 05:26:31;;;;;;;4.60;1.80;;;22.00;99.90;;;;;;4968818;28;20215;-85
2021/06/30 05:29:09;;;;;;;2.73;1.80;;;22.00;99.90;;;;;;4954475;29;20343;-86
2021/06/30 05:31:45;;;;;;;3.67;1.70;;;22.10;99.90;;;;;;4954044;29;20931;-86
2021/06/30 05:34:21;;;;;;;2.40;1.93;;;21.90;99.90;;;;;;4954700;28;20207;-86
2021/06/30 05:36:52;;;;;;;3.53;2.17;;;21.80;99.90;;;;;;4979807;28;20258;-87
2021/06/30 05:39:23;;;;;;;2.43;1.60;;;21.80;99.90;;;;;;4964246;28;20211;-86
2021/06/30 05:41:53;;;;;;;2.53;2.10;;;21.70;99.90;;;;;;4975250;28;20238;-87
2021/06/30 05:44:26;;;;;;;5.70;2.27;;;21.50;99.90;;;;;;4970350;28;20269;-87
2021/06/30 05:46:58;;;;;;;2.90;1.83;;;21.30;99.90;;;;;;4978183;28;20207;-87
2021/06/30 05:49:33;;;;;;;2.90;2.00;;;21.10;99.90;;;;;;4977458;28;20305;-86
2021/06/30 05:52:09;;;;;;;4.27;2.13;;;21.20;99.90;;;;;;4976700;28;20226;-86
2021/06/30 05:54:40;;;;;;;5.40;2.40;;;21.00;99.90;;;;;;4976777;28;20206;-86
2021/06/30 05:57:11;;;;;;;4.70;2.50;;;21.00;99.90;;;;;;4971533;28;20331;-86
2021/06/30 05:59:44;;;;;;;3.50;2.27;;;20.90;99.90;;;;;;4957614;28;20203;-86
2021/06/30 06:02:14;;;;;;;3.23;2.57;;;20.90;99.90;;;;;;4975574;28;20215;-86
2021/06/30 06:04:50;;;;;;;4.27;2.43;;;20.90;99.90;;;;;;4977123;28;20372;-87
2021/06/30 06:07:27;;;;;;;2.90;2.50;;;20.90;99.90;;;;;;4976743;28;20360;-85
2021/06/30 06:10:03;;;;;;;4.23;2.47;;;20.80;99.90;;;;;;4976546;28;20250;-86
2021/06/30 06:12:36;;;;;;;2.37;2.17;;;20.80;99.90;;;;;;4977707;28;20203;-86
2021/06/30 06:15:11;;;;;;;2.33;2.13;;;20.70;99.90;;;;;;4990358;28;20234;-86
2021/06/30 06:17:48;;;;;;;2.43;2.17;;;20.70;99.90;;;;;;4998438;28;20206;-87
2021/06/30 06:20:24;;;;;;;2.80;1.97;;;20.60;99.90;;;;;;4996974;28;20225;-87
2021/06/30 06:22:55;;;;;;;4.23;2.87;;;20.70;99.90;;;;;;4983110;28;20277;-86
2021/06/30 06:25:30;;;;;;;3.53;2.37;;;20.60;99.90;;;;;;4976958;28;20245;-86
2021/06/30 06:28:04;;;;;;;3.50;2.60;;;20.60;99.90;;;;;;4977521;28;20303;-86
2021/06/30 06:30:36;;;;;;;4.20;2.50;;;20.50;99.90;;;;;;4975951;28;20762;-87
2021/06/30 06:33:12;;;;;;;3.20;2.43;;;20.30;99.90;;;;;;4976943;28;20633;-86
2021/06/30 06:35:44;;;;;;;5.37;2.80;;;20.20;99.90;;;;;;4977775;28;20250;-86
2021/06/30 06:38:16;;;;;;;2.53;2.30;;;20.10;99.90;;;;;;4977853;28;20270;-87
2021/06/30 06:40:46;;;;;;;3.33;2.37;;;20.10;99.90;;;;;;4976495;28;20235;-86
2021/06/30 06:43:25;;;;;;;2.57;2.23;;;20.10;99.90;;;;;;4976439;28;20215;-87
2021/06/30 06:45:57;;;;;;;3.03;2.63;;;20.10;99.90;;;;;;4976667;28;20203;-86
2021/06/30 06:48:28;;;;;;;3.30;2.87;;;19.90;99.90;;;;;;4976342;28;20215;-85
2021/06/30 06:50:59;;;;;;;3.77;2.93;;;19.80;99.90;;;;;;4975230;28;20257;-86
2021/06/30 06:53:29;;;;;;;3.03;2.60;;;19.60;99.90;;;;;;4976334;28;20254;-86
2021/06/30 06:56:01;;;;;;;5.33;2.87;;;19.60;99.90;;;;;;4977820;28;20233;-87
2021/06/30 06:58:32;;;;;;;3.63;2.50;;;19.60;99.90;;;;;;4976006;28;20581;-86
2021/06/30 07:01:09;;;;;;;2.97;2.67;;;19.60;99.90;;;;;;4975158;28;20237;-87
2021/06/30 07:03:40;;;;;;;2.97;2.60;;;19.60;99.90;;;;;;4975569;28;20270;-86
2021/06/30 07:06:16;;;;;;;3.00;2.70;;;19.60;99.90;;;;;;4986434;28;20268;-86
2021/06/30 07:08:51;;;;;;;3.13;2.63;;;19.60;99.90;;;;;;4987264;28;20215;-87
2021/06/30 07:11:21;;;;;;;3.10;2.80;;;19.60;99.90;;;;;;4974708;28;20206;-86
2021/06/30 07:13:58;;;;;;;3.67;2.70;;;19.50;99.90;;;;;;4975344;28;20218;-86
2021/06/30 07:16:30;;;;;;;2.73;2.53;;;19.50;99.90;;;;;;4976532;28;20207;-87
2021/06/30 07:19:06;;;;;;;4.30;2.93;;;19.50;99.90;;;;;;4975685;28;20301;-87
2021/06/30 07:21:37;;;;;;;3.60;2.80;;;19.50;99.90;;;;;;4974794;28;20211;-86
2021/06/30 07:24:08;;;;;;;4.97;2.80;;;19.50;99.90;;;;;;4975969;28;20629;-86
2021/06/30 07:26:39;;;;;;;4.03;3.10;;;19.30;99.90;;;;;;4975517;28;20207;-87
2021/06/30 07:29:09;;;;;;;3.40;2.93;;;19.30;99.90;;;;;;4942877;28;20578;-86
2021/06/30 07:31:42;;;;;;;3.70;3.20;;;19.20;99.90;;;;;;4974470;28;20203;-84
2021/06/30 07:34:12;;;;;;;3.30;3.00;;;19.00;99.90;;;;;;4976714;28;20255;-86
2021/06/30 07:36:43;;;;;;;3.20;2.77;;;19.00;99.90;;;;;;4990111;28;20268;-86
2021/06/30 07:39:18;;;;;;;3.20;2.90;;;19.00;99.90;;;;;;4978501;28;20230;-85
2021/06/30 07:41:49;;;;;;;4.03;2.97;;;18.90;99.90;;;;;;4974092;28;20207;-86
2021/06/30 07:44:27;;;;;;;3.57;2.93;;;18.90;99.90;;;;;;4956087;29;20211;-86
2021/06/30 07:47:00;;;;;;;3.07;2.77;;;18.90;99.90;;;;;;4955742;29;20262;-86
2021/06/30 07:49:31;;;;;;;4.43;3.30;;;19.00;99.90;;;;;;4955127;28;20808;-85
2021/06/30 07:52:02;;;;;;;4.00;3.10;;;18.90;99.90;;;;;;4951457;28;20234;-86
2021/06/30 07:54:33;;;;;;;4.17;3.20;;;18.90;99.90;;;;;;4977486;28;20281;-85
2021/06/30 07:57:04;;;;;;;4.20;3.07;;;19.00;99.90;;;;;;4974964;28;20290;-84
2021/06/30 07:59:35;;;;;;;3.67;3.30;;;19.00;99.90;;;;;;4975340;28;20257;-86
2021/06/30 08:02:07;;;;;;;3.20;2.90;;;19.00;99.90;;;;;;4974650;28;20290;-87
2021/06/30 08:04:38;;;;;;;4.67;3.47;;;18.80;99.90;;;;;;4975448;28;20211;-87
2021/06/30 08:07:09;;;;;;;4.03;3.60;;;18.70;99.90;;;;;;4999163;28;20244;-86
2021/06/30 08:09:40;;;;;;;4.53;3.57;;;18.60;99.90;;;;;;4996040;28;20254;-85
2021/06/30 08:12:11;;;;;;;4.93;3.63;;;18.60;99.90;;;;;;4993534;28;20272;-86
2021/06/30 08:14:42;;;;;;;3.90;3.50;;;18.60;99.90;;;;;;4995498;28;20257;-86
2021/06/30 08:17:15;;;;;;;5.77;3.83;;;18.60;99.90;;;;;;4994836;28;20611;-86
2021/06/30 08:19:45;;;;;;;3.87;3.30;;;18.50;99.90;;;;;;4994465;28;20644;-84
2021/06/30 08:22:16;;;;;;;3.50;3.20;;;18.50;99.90;;;;;;4994052;28;20202;-86
2021/06/30 08:24:47;;;;;;;4.23;3.83;;;18.50;99.90;;;;;;4994349;28;20755;-86
2021/06/30 08:27:20;;;;;;;5.30;3.80;;;18.60;99.90;;;;;;4994312;28;20293;-86
2021/06/30 08:29:51;;;;;;;4.30;3.73;;;18.50;99.90;;;;;;4993725;28;20261;-89
2021/06/30 08:32:25;;;;;;;4.10;3.50;;;18.50;99.90;;;;;;4994028;28;20301;-86
2021/06/30 08:34:56;;;;;;;6.13;3.77;;;18.40;99.90;;;;;;4994787;28;20260;-86
2021/06/30 08:37:28;;;;;;;4.17;3.60;;;18.40;99.90;;;;;;4975946;28;20608;-86
2021/06/30 08:39:59;;;;;;;4.10;3.20;;;18.40;99.90;;;;;;4975123;28;20672;-87
2021/06/30 08:42:30;;;;;;;3.93;3.40;;;18.40;99.90;;;;;;4976744;28;20233;-86
2021/06/30 08:45:01;;;;;;;4.27;3.80;;;18.40;99.90;;;;;;4977863;28;20575;-85
2021/06/30 08:47:36;;;;;;;4.83;3.60;;;18.40;99.90;;;;;;4979264;28;20207;-86
2021/06/30 08:50:09;;;;;;;4.70;3.70;;;18.30;99.90;;;;;;4979209;28;20927;-86
2021/06/30 08:52:40;;;;;;;4.20;3.80;;;18.30;99.90;;;;;;4988266;28;20217;-86
2021/06/30 08:55:17;;;;;;;4.37;3.67;;;18.20;99.90;;;;;;4997294;28;20234;-86
2021/06/30 08:57:50;;;;;;;5.13;3.67;;;18.20;99.90;;;;;;4994874;28;20206;-87
2021/06/30 09:00:21;;;;;;;3.97;3.37;;;18.20;99.90;;;;;;4992824;28;20206;-86
2021/06/30 09:02:57;;;;;;;4.30;3.90;;;18.20;99.90;;;;;;4981011;28;20191;-87
2021/06/30 09:08:17;;;;;;;5.87;3.87;;;18.20;99.90;;;;;;4977926;28;20269;-86
2021/06/30 09:10:48;;;;;;;4.10;3.70;;;18.20;99.90;;;;;;4974679;28;20270;-84
2021/06/30 09:13:24;;;;;;;4.30;3.90;;;18.20;99.90;;;;;;4974652;28;20656;-85
2021/06/30 09:15:59;;;;;;;5.33;3.50;;;18.20;99.90;;;;;;4973588;28;20245;-84
2021/06/30 09:18:33;;;;;;;3.87;3.47;;;18.10;99.90;;;;;;4974364;28;20261;-85
2021/06/30 09:21:20;;;;;;;6.37;3.80;;;18.10;99.90;;;;;;4973702;28;20261;-85
2021/06/30 09:23:59;;;;;;;6.53;4.10;;;18.10;99.90;;;;;;4974012;28;20687;-84
2021/06/30 09:26:32;;;;;;;4.60;3.77;;;18.10;99.90;;;;;;4973664;28;20290;-86
2021/06/30 09:29:06;;;;;;;5.73;4.33;;;18.00;99.90;;;;;;4974000;28;20238;-84
2021/06/30 09:31:38;;;;;;;5.37;4.10;;;18.00;99.90;;;;;;4972480;28;20281;-85
2021/06/30 09:34:11;;;;;;;4.97;3.97;;;17.90;99.90;;;;;;4973992;28;20261;-85
2021/06/30 09:36:53;;;;;;;5.30;4.20;;;18.00;99.90;;;;;;4973600;28;20234;-85
2021/06/30 09:39:25;;;;;;;4.50;4.10;;;17.90;99.90;;;;;;4973431;28;20653;-84
2021/06/30 09:42:05;;;;;;;4.70;4.20;;;17.90;99.90;;;;;;4972878;28;20262;-85
2021/06/30 09:44:37;;;;;;;4.57;4.13;;;17.90;99.90;;;;;;4974258;28;20265;-85
2021/06/30 09:47:09;;;;;;;4.97;4.27;;;17.90;99.90;;;;;;4972319;28;20286;-85
2021/06/30 09:49:42;;;;;;;5.10;4.30;;;17.90;99.90;;;;;;4973468;28;20226;-85
2021/06/30 09:52:16;;;;;;;4.43;4.03;;;17.90;99.90;;;;;;4972651;28;20270;-85
2021/06/30 09:54:48;;;;;;;4.77;4.33;;;17.90;99.90;;;;;;4974434;28;20226;-85
2021/06/30 09:57:20;;;;;;;5.03;4.53;;;17.80;99.90;;;;;;4973658;28;20250;-85
2021/06/30 09:59:58;;;;;;;4.80;4.30;;;17.80;99.90;;;;;;4956604;28;20293;-85
2021/06/30 10:02:40;;;;;;;5.00;4.30;;;17.80;99.90;;;;;;4973524;28;20254;-86
2021/06/30 10:05:14;;;;;;;5.27;4.30;;;17.80;99.90;;;;;;4975443;28;20213;-85
2021/06/30 10:07:47;;;;;;;4.50;4.10;;;17.80;99.90;;;;;;4992485;28;20210;-86
2021/06/30 10:10:23;;;;;;;4.77;4.30;;;17.90;99.90;;;;;;4992057;28;20210;-86
2021/06/30 10:12:54;;;;;;;5.70;4.53;;;17.80;99.90;;;;;;4992460;28;20221;-85
2021/06/30 10:15:25;;;;;;;5.27;4.77;;;17.90;99.90;;;;;;4992445;28;20222;-84
2021/06/30 10:17:56;;;;;;;5.00;4.50;;;17.90;99.90;;;;;;4992490;28;20256;-85
2021/06/30 10:20:29;;;;;;;6.03;4.10;;;17.90;99.90;;;;;;4991577;28;20252;-85
2021/06/30 10:23:01;;;;;;;5.27;4.47;;;17.80;99.90;;;;;;4992079;28;20655;-84
2021/06/30 10:25:32;;;;;;;4.63;4.17;;;17.90;99.90;;;;;;4992269;28;20647;-85
2021/06/30 10:28:03;;;;;;;4.87;4.37;;;17.90;99.90;;;;;;4994276;28;20214;-86
2021/06/30 10:30:34;;;;;;;5.07;4.47;;;17.80;99.90;;;;;;4994974;28;20210;-86
2021/06/30 10:33:05;;;;;;;5.43;3.87;;;17.80;99.90;;;;;;4995952;28;20261;-85
2021/06/30 10:35:48;;;;;;;6.13;4.20;;;17.70;99.90;;;;;;4990312;28;20714;-85
2021/06/30 10:38:19;;;;;;;5.60;4.40;;;17.60;99.90;;;;;;4976043;28;20218;-85
2021/06/30 10:40:51;;;;;;;5.77;4.30;;;17.60;99.90;;;;;;4975421;28;20206;-85
2021/06/30 10:43:23;;;;;;;6.43;4.60;;;17.60;99.90;;;;;;4977951;28;20615;-85
2021/06/30 10:46:26;;;;;;;6.00;4.57;;;17.70;99.90;;;;;;4977051;28;20235;-85
2021/06/30 10:49:18;;;;;;;5.83;4.30;;;17.60;99.90;;;;;;4976020;28;20218;-85
2021/06/30 10:51:52;;;;;;;6.23;4.40;;;17.50;99.90;;;;;;4975015;28;20330;-85
2021/06/30 10:54:42;;;;;;;5.20;4.30;;;17.40;99.90;;;;;;4976107;28;20294;-85
2021/06/30 10:57:32;;;;;;;5.23;4.73;;;17.40;99.90;;;;;;4975997;28;20219;-85
2021/06/30 11:00:19;;;;;;;6.10;4.73;;;17.40;99.90;;;;;;4975462;28;20778;-86
2021/06/30 11:03:27;;;;;;;5.20;4.70;;;17.50;99.90;;;;;;4976267;28;20277;-86
2021/06/30 11:06:19;;;;;;;7.03;4.87;;;17.40;99.90;;;;;;4976028;28;20672;-85
2021/06/30 11:08:53;;;;;;;6.53;4.60;;;17.40;99.90;;;;;;4975754;28;20207;-85
2021/06/30 11:11:54;;;;;;;5.27;4.60;;;17.40;99.90;;;;;;4974794;28;20274;-87
2021/06/30 11:14:41;;;;;;;5.67;4.97;;;17.30;99.90;;;;;;4955897;29;20245;-83
2021/06/30 11:17:13;;;;;;;5.07;4.57;;;17.30;99.90;;;;;;4956189;29;20211;-85
2021/06/30 11:19:48;;;;;;;5.43;4.93;;;17.30;99.90;;;;;;4956565;29;20218;-86
2021/06/30 11:22:29;;;;;;;4.90;4.47;;;17.20;99.90;;;;;;4957015;29;20219;-85
2021/06/30 11:25:06;;;;;;;6.87;5.30;;;17.30;99.90;;;;;;4956587;29;20251;-85
2021/06/30 11:27:54;;;;;;;5.40;4.90;;;17.20;99.90;;;;;;4961744;29;20223;-85
2021/06/30 11:30:34;;;;;;;6.70;5.30;;;17.30;99.90;;;;;;4976939;29;20218;-86
2021/06/30 11:33:20;;;;;;;6.73;5.70;;;17.20;99.90;;;;;;4977160;29;20239;-85
2021/06/30 11:35:52;;;;;;;5.57;5.07;;;17.20;99.90;;;;;;4989375;28;20221;-84
2021/06/30 11:38:26;;;;;;;7.07;5.10;;;17.20;99.90;;;;;;4996284;28;20245;-85
2021/06/30 11:41:07;;;;;;;5.53;4.90;;;17.10;99.90;;;;;;4983257;28;20222;-85
2021/06/30 11:43:44;;;;;;;7.63;5.60;;;17.10;99.90;;;;;;4939720;29;20208;-85
2021/06/30 11:46:15;;;;;;;6.80;6.07;;;17.10;99.90;;;;;;4956089;29;20243;-84
2021/06/30 11:48:52;;;;;;;5.60;4.87;;;17.10;99.90;;;;;;4962771;28;20206;-86
2021/06/30 11:51:24;;;;;;;5.83;5.23;;;17.10;99.90;;;;;;4957186;28;20265;-85
2021/06/30 11:53:55;;;;;;;7.60;5.20;;;17.00;99.90;;;;;;4975132;28;20301;-85
2021/06/30 11:56:42;;;;;;;5.77;5.17;;;17.10;99.90;;;;;;4975173;28;20269;-85
2021/06/30 11:59:20;;;;;;;5.77;5.17;;;17.10;99.90;;;;;;4974560;28;20246;-85
2021/06/30 12:01:51;;;;;;;5.83;5.23;;;17.10;99.90;;;;;;4973544;28;20238;-86
2021/06/30 12:04:26;;;;;;;6.97;5.67;;;17.00;99.90;;;;;;4974725;28;20664;-86
2021/06/30 12:06:59;;;;;;;8.17;5.70;;;17.00;99.90;;;;;;4974712;28;20632;-86
2021/06/30 12:09:31;;;;;;;5.70;4.80;;;17.00;99.90;;;;;;4974464;28;20191;-86
2021/06/30 12:12:06;;;;;;;6.80;5.73;;;17.00;99.90;;;;;;4973745;28;20258;-85
2021/06/30 12:14:40;;;;;;;6.23;5.73;;;17.00;99.90;;;;;;4974626;28;20234;-84
2021/06/30 12:17:12;;;;;;;5.87;5.17;;;17.00;99.90;;;;;;4974633;28;20238;-85
2021/06/30 12:19:45;;;;;;;6.00;5.40;;;17.00;99.90;;;;;;4974507;28;20214;-85
2021/06/30 12:22:25;;;;;;;5.97;5.37;;;17.00;99.90;;;;;;4973903;28;20207;-86
2021/06/30 12:24:59;;;;;;;6.90;6.10;;;16.90;99.90;;;;;;4974720;28;20215;-85
2021/06/30 12:27:34;;;;;;;8.20;5.47;;;16.90;99.90;;;;;;4974446;28;20205;-85
2021/06/30 12:30:11;;;;;;;9.17;6.00;;;16.90;99.90;;;;;;4973537;28;20297;-85
2021/06/30 12:32:44;;;;;;;8.33;5.37;;;16.90;99.90;;;;;;4974681;28;20266;-86
2021/06/30 12:35:16;;;;;;;7.40;5.70;;;16.90;99.90;;;;;;4974432;28;20699;-85
2021/06/30 12:37:56;;;;;;;7.00;5.63;;;16.90;99.90;;;;;;4974499;28;20317;-85
2021/06/30 12:40:46;;;;;;;6.73;6.03;;;16.90;99.90;;;;;;4973893;28;20668;-85
2021/06/30 12:43:20;;;;;;;7.13;5.80;;;16.80;99.90;;;;;;4974234;28;20558;-85
2021/06/30 12:45:53;;;;;;;9.23;5.63;;;16.70;99.90;;;;;;4974201;28;20616;-85
2021/06/30 12:48:25;;;;;;;7.20;6.10;;;16.80;99.90;;;;;;4973970;28;20293;-86
2021/06/30 12:50:57;;;;;;;9.23;5.83;;;16.70;99.90;;;;;;4972207;28;20227;-86
2021/06/30 12:53:32;;;;;;;7.47;6.63;;;16.80;99.90;;;;;;4973719;28;20326;-86
2021/06/30 12:56:04;;;;;;;8.03;6.17;;;16.80;99.90;;;;;;4974045;28;20579;-86
2021/06/30 12:58:42;;;;;;;6.83;6.23;;;16.90;99.90;;;;;;4956637;28;20218;-86
2021/06/30 13:01:15;;;;;;;7.20;6.50;;;16.90;99.90;;;;;;4972898;28;20203;-85
2021/06/30 13:03:51;;;;;;;8.30;6.20;;;16.80;99.90;;;;;;4974002;28;20210;-85
2021/06/30 13:06:23;;;;;;;8.83;6.30;;;16.90;99.90;;;;;;4985488;28;20671;-85
2021/06/30 13:09:01;;;;;;;7.73;6.17;;;16.90;99.90;;;;;;4993412;28;20214;-86
2021/06/30 13:11:41;;;;;;;8.53;6.07;;;17.00;99.90;;;;;;4976479;28;20276;-85
2021/06/30 13:14:16;;;;;;;7.13;6.10;;;17.00;99.90;;;;;;4975477;28;20637;-86
2021/06/30 13:16:54;;;;;;;6.37;5.77;;;17.00;99.90;;;;;;4973720;28;20264;-85
2021/06/30 13:19:26;;;;;;;8.33;6.47;;;17.00;99.90;;;;;;4974621;28;20222;-85
2021/06/30 13:21:58;;;;;;;7.47;6.23;;;16.90;99.90;;;;;;4973372;28;20660;-86
2021/06/30 13:24:35;;;;;;;6.77;6.07;;;17.00;99.90;;;;;;4973926;28;20221;-85
2021/06/30 13:35:45;;;;;;;8.80;7.03;;;17.00;99.90;;;;;;4973307;28;20287;-83